sensor_id;sensor_type;location;lat;lon;timestamp;pressure;altitude;pressure_sealevel;temperature;humidity
61384;BME280;63511;49.346;8.798;2023-05-08T00:01:55;100466.91;;;18.53;84.19
61384;BME280;63511;49.346;8.798;2023-05-08T00:04:21;100469.59;;;18.56;84.03
61384;BME280;63511;49.346;8.798;2023-05-08T00:06:48;100467.81;;;18.54;84.06
61384;BME280;63511;49.346;8.798;2023-05-08T00:09:15;100472.66;;;18.48;84.51
61384;BME280;63511;49.346;8.798;2023-05-08T00:11:43;100478.13;;;18.57;84.15
61384;BME280;63511;49.346;8.798;2023-05-08T00:14:10;100475.66;;;18.58;83.80
61384;BME280;63511;49.346;8.798;2023-05-08T00:16:36;100471.69;;;18.44;84.84
61384;BME280;63511;49.346;8.798;2023-05-08T00:19:03;100476.88;;;18.25;85.43
61384;BME280;63511;49.346;8.798;2023-05-08T00:21:29;100470.03;;;18.24;86.17
61384;BME280;63511;49.346;8.798;2023-05-08T00:23:56;100471.94;;;18.52;84.30
61384;BME280;63511;49.346;8.798;2023-05-08T00:26:23;100475.22;;;18.48;84.47
61384;BME280;63511;49.346;8.798;2023-05-08T00:28:50;100472.72;;;18.49;84.34
61384;BME280;63511;49.346;8.798;2023-05-08T00:31:20;100480.25;;;18.24;85.81
61384;BME280;63511;49.346;8.798;2023-05-08T00:33:47;100474.91;;;18.18;86.15
61384;BME280;63511;49.346;8.798;2023-05-08T00:36:14;100483.84;;;18.07;86.64
61384;BME280;63511;49.346;8.798;2023-05-08T00:38:41;100476.19;;;18.29;85.65
61384;BME280;63511;49.346;8.798;2023-05-08T00:41:07;100477.09;;;18.09;86.98
61384;BME280;63511;49.346;8.798;2023-05-08T00:43:34;100474.69;;;18.12;86.90
61384;BME280;63511;49.346;8.798;2023-05-08T00:46:03;100476.03;;;18.04;88.04
61384;BME280;63511;49.346;8.798;2023-05-08T00:48:30;100481.25;;;17.84;89.28
61384;BME280;63511;49.346;8.798;2023-05-08T00:50:57;100487.16;;;17.83;89.49
61384;BME280;63511;49.346;8.798;2023-05-08T00:53:25;100491.47;;;17.84;90.21
61384;BME280;63511;49.346;8.798;2023-05-08T00:55:52;100487.19;;;18.26;87.91
61384;BME280;63511;49.346;8.798;2023-05-08T00:58:20;100485.75;;;18.33;86.62
61384;BME280;63511;49.346;8.798;2023-05-08T01:00:47;100483.19;;;18.33;86.39
61384;BME280;63511;49.346;8.798;2023-05-08T01:03:17;100481.78;;;17.98;88.30
61384;BME280;63511;49.346;8.798;2023-05-08T01:05:44;100486.31;;;18.26;87.01
61384;BME280;63511;49.346;8.798;2023-05-08T01:08:11;100484.19;;;18.16;86.81
61384;BME280;63511;49.346;8.798;2023-05-08T01:10:41;100486.31;;;18.26;86.68
61384;BME280;63511;49.346;8.798;2023-05-08T01:13:10;100478.88;;;18.32;86.10
61384;BME280;63511;49.346;8.798;2023-05-08T01:15:40;100478.97;;;18.35;85.56
61384;BME280;63511;49.346;8.798;2023-05-08T01:18:10;100483.56;;;18.21;86.13
61384;BME280;63511;49.346;8.798;2023-05-08T01:20:41;100484.69;;;18.28;85.63
61384;BME280;63511;49.346;8.798;2023-05-08T01:26:14;100488.06;;;18.27;85.66
61384;BME280;63511;49.346;8.798;2023-05-08T01:29:08;100490.19;;;18.16;85.88
61384;BME280;63511;49.346;8.798;2023-05-08T01:31:42;100490.91;;;17.92;87.35
61384;BME280;63511;49.346;8.798;2023-05-08T01:34:15;100485.00;;;17.72;88.52
61384;BME280;63511;49.346;8.798;2023-05-08T01:36:47;100488.19;;;17.87;88.08
61384;BME280;63511;49.346;8.798;2023-05-08T01:39:16;100502.47;;;18.04;87.23
61384;BME280;63511;49.346;8.798;2023-05-08T01:41:45;100498.63;;;17.93;87.34
61384;BME280;63511;49.346;8.798;2023-05-08T01:44:14;100497.34;;;17.82;89.03
61384;BME280;63511;49.346;8.798;2023-05-08T01:46:43;100503.34;;;18.05;86.88
61384;BME280;63511;49.346;8.798;2023-05-08T01:49:11;100506.88;;;18.08;86.56
61384;BME280;63511;49.346;8.798;2023-05-08T01:51:40;100501.22;;;18.15;85.90
61384;BME280;63511;49.346;8.798;2023-05-08T01:54:10;100498.16;;;18.03;86.60
61384;BME280;63511;49.346;8.798;2023-05-08T01:56:38;100507.03;;;18.11;86.73
61384;BME280;63511;49.346;8.798;2023-05-08T01:59:06;100506.16;;;17.90;88.19
61384;BME280;63511;49.346;8.798;2023-05-08T02:01:33;100498.19;;;17.82;89.10
61384;BME280;63511;49.346;8.798;2023-05-08T02:04:00;100506.69;;;18.02;87.96
61384;BME280;63511;49.346;8.798;2023-05-08T02:06:28;100507.66;;;18.06;86.81
61384;BME280;63511;49.346;8.798;2023-05-08T02:08:57;100503.25;;;18.02;86.69
61384;BME280;63511;49.346;8.798;2023-05-08T02:11:25;100504.69;;;17.95;87.13
61384;BME280;63511;49.346;8.798;2023-05-08T02:13:51;100510.31;;;18.09;86.52
61384;BME280;63511;49.346;8.798;2023-05-08T02:16:19;100508.41;;;18.03;86.35
61384;BME280;63511;49.346;8.798;2023-05-08T02:18:47;100508.34;;;18.02;86.29
61384;BME280;63511;49.346;8.798;2023-05-08T02:21:16;100510.16;;;17.83;87.06
61384;BME280;63511;49.346;8.798;2023-05-08T02:23:44;100509.91;;;17.98;86.66
61384;BME280;63511;49.346;8.798;2023-05-08T02:26:12;100516.47;;;17.92;86.73
61384;BME280;63511;49.346;8.798;2023-05-08T02:28:40;100515.69;;;17.94;86.96
61384;BME280;63511;49.346;8.798;2023-05-08T02:31:07;100518.69;;;17.84;87.18
61384;BME280;63511;49.346;8.798;2023-05-08T02:33:34;100516.31;;;17.89;87.32
61384;BME280;63511;49.346;8.798;2023-05-08T02:36:02;100519.94;;;17.94;86.95
61384;BME280;63511;49.346;8.798;2023-05-08T02:38:29;100518.13;;;18.12;86.07
61384;BME280;63511;49.346;8.798;2023-05-08T02:40:57;100521.25;;;18.05;86.37
61384;BME280;63511;49.346;8.798;2023-05-08T02:43:26;100513.41;;;18.00;86.62
61384;BME280;63511;49.346;8.798;2023-05-08T02:45:56;100518.75;;;18.06;86.58
61384;BME280;63511;49.346;8.798;2023-05-08T02:48:25;100515.44;;;18.09;86.05
61384;BME280;63511;49.346;8.798;2023-05-08T02:50:54;100516.94;;;18.04;87.16
61384;BME280;63511;49.346;8.798;2023-05-08T02:53:25;100515.44;;;18.09;86.13
61384;BME280;63511;49.346;8.798;2023-05-08T02:55:59;100521.91;;;18.21;85.54
61384;BME280;63511;49.346;8.798;2023-05-08T02:58:30;100526.06;;;18.18;85.51
61384;BME280;63511;49.346;8.798;2023-05-08T03:01:01;100520.25;;;18.01;86.75
61384;BME280;63511;49.346;8.798;2023-05-08T03:03:31;100528.22;;;18.09;86.44
61384;BME280;63511;49.346;8.798;2023-05-08T03:06:00;100517.78;;;18.03;86.25
61384;BME280;63511;49.346;8.798;2023-05-08T03:08:28;100518.56;;;18.02;86.67
61384;BME280;63511;49.346;8.798;2023-05-08T03:10:56;100515.06;;;18.00;86.52
61384;BME280;63511;49.346;8.798;2023-05-08T03:13:27;100524.94;;;18.11;86.45
61384;BME280;63511;49.346;8.798;2023-05-08T03:15:57;100521.25;;;18.05;86.30
61384;BME280;63511;49.346;8.798;2023-05-08T03:18:27;100520.00;;;18.16;85.89
61384;BME280;63511;49.346;8.798;2023-05-08T03:20:55;100523.34;;;18.15;85.66
61384;BME280;63511;49.346;8.798;2023-05-08T03:23:23;100519.28;;;17.98;86.52
61384;BME280;63511;49.346;8.798;2023-05-08T03:25:51;100521.13;;;18.02;86.43
61384;BME280;63511;49.346;8.798;2023-05-08T03:28:21;100518.88;;;18.09;86.33
61384;BME280;63511;49.346;8.798;2023-05-08T03:30:51;100520.00;;;18.16;85.76
61384;BME280;63511;49.346;8.798;2023-05-08T03:33:20;100525.47;;;18.25;85.70
61384;BME280;63511;49.346;8.798;2023-05-08T03:35:46;100524.47;;;18.21;85.46
61384;BME280;63511;49.346;8.798;2023-05-08T03:38:13;100519.00;;;18.12;85.79
61384;BME280;63511;49.346;8.798;2023-05-08T03:40:45;100520.00;;;17.95;87.19
61384;BME280;63511;49.346;8.798;2023-05-08T03:43:13;100515.25;;;17.83;88.13
61384;BME280;63511;49.346;8.798;2023-05-08T03:45:41;100513.56;;;18.05;87.60
61384;BME280;63511;49.346;8.798;2023-05-08T03:48:08;100517.38;;;18.14;86.51
61384;BME280;63511;49.346;8.798;2023-05-08T03:50:39;100516.81;;;18.21;86.35
61384;BME280;63511;49.346;8.798;2023-05-08T03:53:05;100517.06;;;18.07;86.55
61384;BME280;63511;49.346;8.798;2023-05-08T03:55:32;100524.78;;;18.08;86.20
61384;BME280;63511;49.346;8.798;2023-05-08T03:58:01;100521.38;;;18.08;86.40
61384;BME280;63511;49.346;8.798;2023-05-08T04:00:32;100525.81;;;17.91;87.07
61384;BME280;63511;49.346;8.798;2023-05-08T04:03:09;100532.06;;;17.98;86.98
61384;BME280;63511;49.346;8.798;2023-05-08T04:05:42;100529.09;;;18.09;86.71
61384;BME280;63511;49.346;8.798;2023-05-08T04:08:14;100526.41;;;18.27;85.92
61384;BME280;63511;49.346;8.798;2023-05-08T04:10:45;100533.38;;;18.31;85.85
61384;BME280;63511;49.346;8.798;2023-05-08T04:13:17;100530.19;;;18.37;85.08
61384;BME280;63511;49.346;8.798;2023-05-08T04:15:47;100536.91;;;18.35;84.84
61384;BME280;63511;49.346;8.798;2023-05-08T04:18:15;100540.09;;;18.29;85.07
61384;BME280;63511;49.346;8.798;2023-05-08T04:20:45;100540.09;;;18.07;86.28
61384;BME280;63511;49.346;8.798;2023-05-08T04:23:13;100533.09;;;18.03;86.35
61384;BME280;63511;49.346;8.798;2023-05-08T04:25:41;100533.72;;;18.18;85.85
61384;BME280;63511;49.346;8.798;2023-05-08T04:28:08;100537.19;;;18.20;85.86
61384;BME280;63511;49.346;8.798;2023-05-08T04:30:35;100538.50;;;18.31;85.33
61384;BME280;63511;49.346;8.798;2023-05-08T04:33:02;100539.75;;;18.20;85.34
61384;BME280;63511;49.346;8.798;2023-05-08T04:35:30;100539.03;;;18.24;85.44
61384;BME280;63511;49.346;8.798;2023-05-08T04:37:58;100536.75;;;18.09;86.10
61384;BME280;63511;49.346;8.798;2023-05-08T04:40:29;100542.38;;;18.21;85.57
61384;BME280;63511;49.346;8.798;2023-05-08T04:42:59;100541.31;;;18.16;85.86
61384;BME280;63511;49.346;8.798;2023-05-08T04:45:26;100541.81;;;18.29;85.20
61384;BME280;63511;49.346;8.798;2023-05-08T04:47:52;100548.19;;;18.17;85.08
61384;BME280;63511;49.346;8.798;2023-05-08T04:50:19;100547.13;;;18.12;85.53
61384;BME280;63511;49.346;8.798;2023-05-08T04:52:46;100551.13;;;18.06;87.29
61384;BME280;63511;49.346;8.798;2023-05-08T04:55:14;100550.50;;;17.91;88.26
61384;BME280;63511;49.346;8.798;2023-05-08T04:57:41;100554.28;;;18.00;88.09
61384;BME280;63511;49.346;8.798;2023-05-08T05:00:09;100553.78;;;18.09;87.46
61384;BME280;63511;49.346;8.798;2023-05-08T05:02:35;100560.81;;;17.94;88.73
61384;BME280;63511;49.346;8.798;2023-05-08T05:05:02;100550.84;;;18.00;88.68
61384;BME280;63511;49.346;8.798;2023-05-08T05:07:29;100554.28;;;18.21;86.59
61384;BME280;63511;49.346;8.798;2023-05-08T05:09:56;100567.59;;;18.35;85.79
61384;BME280;63511;49.346;8.798;2023-05-08T05:12:24;100567.03;;;18.42;84.90
61384;BME280;63511;49.346;8.798;2023-05-08T05:14:51;100567.13;;;18.43;85.17
61384;BME280;63511;49.346;8.798;2023-05-08T05:17:17;100571.22;;;18.40;85.37
61384;BME280;63511;49.346;8.798;2023-05-08T05:19:44;100570.41;;;18.41;85.32
61384;BME280;63511;49.346;8.798;2023-05-08T05:22:11;100576.53;;;18.44;84.93
61384;BME280;63511;49.346;8.798;2023-05-08T05:24:40;100576.22;;;18.37;85.55
61384;BME280;63511;49.346;8.798;2023-05-08T05:27:07;100572.19;;;18.21;86.63
61384;BME280;63511;49.346;8.798;2023-05-08T05:29:35;100578.06;;;18.41;85.06
61384;BME280;63511;49.346;8.798;2023-05-08T05:32:02;100575.84;;;18.48;84.52
61384;BME280;63511;49.346;8.798;2023-05-08T05:34:31;100578.44;;;18.50;84.21
61384;BME280;63511;49.346;8.798;2023-05-08T05:36:58;100587.91;;;18.52;84.01
61384;BME280;63511;49.346;8.798;2023-05-08T05:39:24;100582.94;;;18.55;83.58
61384;BME280;63511;49.346;8.798;2023-05-08T05:41:51;100586.63;;;18.41;84.39
61384;BME280;63511;49.346;8.798;2023-05-08T05:44:18;100584.25;;;18.46;83.79
61384;BME280;63511;49.346;8.798;2023-05-08T05:46:46;100589.06;;;18.38;84.18
61384;BME280;63511;49.346;8.798;2023-05-08T05:49:13;100591.44;;;18.34;84.76
61384;BME280;63511;49.346;8.798;2023-05-08T05:51:39;100596.25;;;18.26;84.60
61384;BME280;63511;49.346;8.798;2023-05-08T05:54:06;100590.88;;;18.41;85.33
61384;BME280;63511;49.346;8.798;2023-05-08T05:56:32;100594.47;;;18.46;83.83
61384;BME280;63511;49.346;8.798;2023-05-08T05:58:59;100597.72;;;18.42;84.35
61384;BME280;63511;49.346;8.798;2023-05-08T06:01:26;100604.16;;;18.53;83.93
61384;BME280;63511;49.346;8.798;2023-05-08T06:03:54;100601.91;;;18.40;83.94
61384;BME280;63511;49.346;8.798;2023-05-08T06:06:21;100599.66;;;18.47;83.43
61384;BME280;63511;49.346;8.798;2023-05-08T06:08:48;100603.28;;;18.32;85.30
61384;BME280;63511;49.346;8.798;2023-05-08T06:11:15;100599.31;;;18.38;84.45
61384;BME280;63511;49.346;8.798;2023-05-08T06:13:42;100604.97;;;18.31;85.45
61384;BME280;63511;49.346;8.798;2023-05-08T06:16:09;100600.72;;;18.32;85.83
61384;BME280;63511;49.346;8.798;2023-05-08T06:18:36;100609.78;;;18.23;86.36
61384;BME280;63511;49.346;8.798;2023-05-08T06:21:04;100603.91;;;18.47;84.46
61384;BME280;63511;49.346;8.798;2023-05-08T06:23:32;100603.81;;;18.45;83.89
61384;BME280;63511;49.346;8.798;2023-05-08T06:25:59;100605.59;;;18.46;84.14
61384;BME280;63511;49.346;8.798;2023-05-08T06:28:25;100605.97;;;18.55;82.96
61384;BME280;63511;49.346;8.798;2023-05-08T06:30:55;100616.94;;;18.32;83.42
61384;BME280;63511;49.346;8.798;2023-05-08T06:33:21;100610.94;;;18.52;82.56
61384;BME280;63511;49.346;8.798;2023-05-08T06:35:48;100609.53;;;18.38;83.75
61384;BME280;63511;49.346;8.798;2023-05-08T06:38:16;100609.22;;;18.31;84.88
61384;BME280;63511;49.346;8.798;2023-05-08T06:40:43;100612.97;;;18.18;85.77
61384;BME280;63511;49.346;8.798;2023-05-08T06:43:10;100617.03;;;18.13;85.88
61384;BME280;63511;49.346;8.798;2023-05-08T06:45:39;100606.19;;;18.18;85.02
61384;BME280;63511;49.346;8.798;2023-05-08T06:48:06;100613.19;;;18.24;85.11
61384;BME280;63511;49.346;8.798;2023-05-08T06:50:32;100608.41;;;18.11;86.44
61384;BME280;63511;49.346;8.798;2023-05-08T06:52:59;100612.94;;;17.97;88.15
61384;BME280;63511;49.346;8.798;2023-05-08T06:55:27;100616.13;;;17.92;88.17
61384;BME280;63511;49.346;8.798;2023-05-08T06:57:55;100611.69;;;18.50;84.90
61384;BME280;63511;49.346;8.798;2023-05-08T07:00:21;100614.66;;;18.59;83.65
61384;BME280;63511;49.346;8.798;2023-05-08T07:02:48;100617.56;;;18.68;82.98
61384;BME280;63511;49.346;8.798;2023-05-08T07:05:14;100612.38;;;18.46;83.93
61384;BME280;63511;49.346;8.798;2023-05-08T07:07:41;100621.06;;;18.70;82.99
61384;BME280;63511;49.346;8.798;2023-05-08T07:10:08;100612.19;;;18.41;82.90
61384;BME280;63511;49.346;8.798;2023-05-08T07:12:36;100615.28;;;18.33;83.19
61384;BME280;63511;49.346;8.798;2023-05-08T07:15:03;100616.53;;;18.63;83.62
61384;BME280;63511;49.346;8.798;2023-05-08T07:17:30;100613.78;;;18.38;85.19
61384;BME280;63511;49.346;8.798;2023-05-08T07:20:00;100610.16;;;18.33;85.67
61384;BME280;63511;49.346;8.798;2023-05-08T07:22:27;100617.88;;;18.34;85.38
61384;BME280;63511;49.346;8.798;2023-05-08T07:24:54;100617.63;;;18.70;83.67
61384;BME280;63511;49.346;8.798;2023-05-08T07:27:21;100613.66;;;18.55;82.07
61384;BME280;63511;49.346;8.798;2023-05-08T07:29:49;100623.94;;;18.36;84.57
61384;BME280;63511;49.346;8.798;2023-05-08T07:32:16;100619.81;;;18.60;83.15
61384;BME280;63511;49.346;8.798;2023-05-08T07:34:43;100625.19;;;18.66;83.56
61384;BME280;63511;49.346;8.798;2023-05-08T07:37:09;100619.59;;;18.77;82.75
61384;BME280;63511;49.346;8.798;2023-05-08T07:39:36;100622.28;;;19.02;80.91
61384;BME280;63511;49.346;8.798;2023-05-08T07:42:03;100626.31;;;18.95;80.65
61384;BME280;63511;49.346;8.798;2023-05-08T07:44:30;100626.69;;;18.61;80.90
61384;BME280;63511;49.346;8.798;2023-05-08T07:46:58;100630.09;;;18.20;85.54
61384;BME280;63511;49.346;8.798;2023-05-08T07:49:25;100633.09;;;18.31;85.09
61384;BME280;63511;49.346;8.798;2023-05-08T07:51:51;100636.84;;;18.39;83.82
61384;BME280;63511;49.346;8.798;2023-05-08T07:54:18;100631.97;;;18.45;82.65
61384;BME280;63511;49.346;8.798;2023-05-08T07:56:44;100640.03;;;18.34;84.55
61384;BME280;63511;49.346;8.798;2023-05-08T07:59:11;100642.84;;;18.60;83.25
61384;BME280;63511;49.346;8.798;2023-05-08T08:01:40;100633.97;;;18.11;82.39
61384;BME280;63511;49.346;8.798;2023-05-08T08:04:12;100635.16;;;18.40;82.88
61384;BME280;63511;49.346;8.798;2023-05-08T08:06:39;100640.84;;;18.53;81.34
61384;BME280;63511;49.346;8.798;2023-05-08T08:09:07;100638.22;;;18.31;85.03
61384;BME280;63511;49.346;8.798;2023-05-08T08:11:34;100639.81;;;18.71;83.96
61384;BME280;63511;49.346;8.798;2023-05-08T08:14:00;100638.97;;;18.92;83.57
61384;BME280;63511;49.346;8.798;2023-05-08T08:16:27;100639.63;;;18.87;82.45
61384;BME280;63511;49.346;8.798;2023-05-08T08:18:54;100643.34;;;18.73;84.12
61384;BME280;63511;49.346;8.798;2023-05-08T08:21:22;100639.38;;;18.58;82.51
61384;BME280;63511;49.346;8.798;2023-05-08T08:23:48;100644.91;;;18.91;80.90
61384;BME280;63511;49.346;8.798;2023-05-08T08:26:15;100642.63;;;18.77;82.90
61384;BME280;63511;49.346;8.798;2023-05-08T08:28:41;100640.69;;;18.71;81.91
61384;BME280;63511;49.346;8.798;2023-05-08T08:31:08;100643.22;;;18.49;84.57
61384;BME280;63511;49.346;8.798;2023-05-08T08:33:34;100646.25;;;18.40;82.98
61384;BME280;63511;49.346;8.798;2023-05-08T08:36:01;100650.56;;;18.41;85.16
61384;BME280;63511;49.346;8.798;2023-05-08T08:38:29;100647.56;;;18.31;86.85
61384;BME280;63511;49.346;8.798;2023-05-08T08:40:55;100641.91;;;18.79;82.90
61384;BME280;63511;49.346;8.798;2023-05-08T08:43:22;100641.13;;;18.59;83.74
61384;BME280;63511;49.346;8.798;2023-05-08T08:45:49;100645.56;;;18.86;82.88
61384;BME280;63511;49.346;8.798;2023-05-08T08:48:15;100644.72;;;18.64;83.19
61384;BME280;63511;49.346;8.798;2023-05-08T08:50:43;100646.13;;;18.37;84.22
61384;BME280;63511;49.346;8.798;2023-05-08T08:53:15;100646.66;;;18.29;85.70
61384;BME280;63511;49.346;8.798;2023-05-08T08:55:45;100650.00;;;18.48;86.29
61384;BME280;63511;49.346;8.798;2023-05-08T08:58:14;100646.22;;;18.80;85.21
61384;BME280;63511;49.346;8.798;2023-05-08T09:00:41;100654.50;;;18.97;84.46
61384;BME280;63511;49.346;8.798;2023-05-08T09:03:08;100654.94;;;18.85;86.00
61384;BME280;63511;49.346;8.798;2023-05-08T09:05:37;100649.75;;;18.84;83.88
61384;BME280;63511;49.346;8.798;2023-05-08T09:08:04;100659.09;;;18.83;83.78
61384;BME280;63511;49.346;8.798;2023-05-08T09:10:31;100653.88;;;18.80;85.42
61384;BME280;63511;49.346;8.798;2023-05-08T09:12:59;100660.03;;;19.07;84.18
61384;BME280;63511;49.346;8.798;2023-05-08T09:15:26;100661.78;;;19.08;83.09
61384;BME280;63511;49.346;8.798;2023-05-08T09:17:52;100659.16;;;19.07;84.81
61384;BME280;63511;49.346;8.798;2023-05-08T09:20:19;100656.03;;;18.92;85.89
61384;BME280;63511;49.346;8.798;2023-05-08T09:22:46;100655.31;;;18.74;85.49
61384;BME280;63511;49.346;8.798;2023-05-08T09:25:14;100653.44;;;18.90;85.36
61384;BME280;63511;49.346;8.798;2023-05-08T09:27:42;100661.22;;;18.93;85.17
61384;BME280;63511;49.346;8.798;2023-05-08T09:30:11;100664.53;;;18.91;85.32
61384;BME280;63511;49.346;8.798;2023-05-08T09:32:39;100659.50;;;18.72;85.79
61384;BME280;63511;49.346;8.798;2023-05-08T09:35:06;100662.09;;;18.52;85.33
61384;BME280;63511;49.346;8.798;2023-05-08T09:37:36;100670.38;;;18.26;86.57
61384;BME280;63511;49.346;8.798;2023-05-08T09:40:16;100674.88;;;18.32;87.51
61384;BME280;63511;49.346;8.798;2023-05-08T09:42:46;100672.66;;;18.39;85.77
61384;BME280;63511;49.346;8.798;2023-05-08T09:45:25;100674.28;;;18.37;85.62
61384;BME280;63511;49.346;8.798;2023-05-08T09:47:52;100682.72;;;18.15;87.25
61384;BME280;63511;49.346;8.798;2023-05-08T09:50:19;100680.72;;;18.29;87.47
61384;BME280;63511;49.346;8.798;2023-05-08T09:52:46;100676.78;;;18.56;86.24
61384;BME280;63511;49.346;8.798;2023-05-08T09:55:13;100681.56;;;18.49;85.13
61384;BME280;63511;49.346;8.798;2023-05-08T09:57:40;100681.41;;;18.44;86.81
61384;BME280;63511;49.346;8.798;2023-05-08T10:00:16;100680.16;;;18.55;86.61
61384;BME280;63511;49.346;8.798;2023-05-08T10:02:54;100681.00;;;18.54;86.00
61384;BME280;63511;49.346;8.798;2023-05-08T10:05:21;100683.19;;;18.47;86.63
61384;BME280;63511;49.346;8.798;2023-05-08T10:07:48;100680.16;;;18.55;86.59
61384;BME280;63511;49.346;8.798;2023-05-08T10:10:15;100682.41;;;18.68;85.72
61384;BME280;63511;49.346;8.798;2023-05-08T10:12:47;100684.59;;;18.59;84.07
61384;BME280;63511;49.346;8.798;2023-05-08T10:15:14;100678.19;;;19.14;81.98
61384;BME280;63511;49.346;8.798;2023-05-08T10:17:43;100674.09;;;18.74;84.75
61384;BME280;63511;49.346;8.798;2023-05-08T10:20:13;100679.91;;;18.91;83.47
61384;BME280;63511;49.346;8.798;2023-05-08T10:22:42;100682.88;;;19.01;82.89
61384;BME280;63511;49.346;8.798;2023-05-08T10:25:09;100676.84;;;18.79;84.26
61384;BME280;63511;49.346;8.798;2023-05-08T10:27:40;100681.63;;;18.71;85.84
61384;BME280;63511;49.346;8.798;2023-05-08T10:32:38;100682.03;;;19.02;82.72
61384;BME280;63511;49.346;8.798;2023-05-08T10:35:11;100685.97;;;18.72;83.70
61384;BME280;63511;49.346;8.798;2023-05-08T10:37:39;100689.28;;;18.70;85.26
61384;BME280;63511;49.346;8.798;2023-05-08T10:40:09;100682.03;;;19.02;83.25
61384;BME280;63511;49.346;8.798;2023-05-08T10:42:36;100680.19;;;18.98;82.38
61384;BME280;63511;49.346;8.798;2023-05-08T10:45:03;100674.00;;;18.93;81.60
61384;BME280;63511;49.346;8.798;2023-05-08T10:47:32;100674.47;;;18.83;83.98
61384;BME280;63511;49.346;8.798;2023-05-08T10:50:03;100670.31;;;18.64;84.62
61384;BME280;63511;49.346;8.798;2023-05-08T10:52:33;100677.88;;;19.27;82.77
61384;BME280;63511;49.346;8.798;2023-05-08T10:58:03;100667.09;;;19.13;84.09
61384;BME280;63511;49.346;8.798;2023-05-08T11:00:30;100668.25;;;18.56;84.79
61384;BME280;63511;49.346;8.798;2023-05-08T11:03:03;100675.16;;;19.22;81.81
61384;BME280;63511;49.346;8.798;2023-05-08T11:05:30;100663.53;;;19.32;83.09
61384;BME280;63511;49.346;8.798;2023-05-08T11:07:59;100666.00;;;19.51;81.76
61384;BME280;63511;49.346;8.798;2023-05-08T11:10:28;100659.41;;;19.35;78.15
61384;BME280;63511;49.346;8.798;2023-05-08T11:12:55;100662.78;;;19.12;80.64
61384;BME280;63511;49.346;8.798;2023-05-08T11:15:35;100664.72;;;19.64;79.16
61384;BME280;63511;49.346;8.798;2023-05-08T11:18:02;100657.38;;;19.97;76.38
61384;BME280;63511;49.346;8.798;2023-05-08T11:20:37;100664.16;;;19.47;80.76
61384;BME280;63511;49.346;8.798;2023-05-08T11:25:45;100654.72;;;19.95;76.20
61384;BME280;63511;49.346;8.798;2023-05-08T11:28:15;100653.25;;;20.02;77.45
61384;BME280;63511;49.346;8.798;2023-05-08T11:30:55;100647.03;;;19.95;80.33
61384;BME280;63511;49.346;8.798;2023-05-08T11:33:22;100636.50;;;20.36;76.52
61384;BME280;63511;49.346;8.798;2023-05-08T11:35:58;100637.28;;;19.85;78.74
61384;BME280;63511;49.346;8.798;2023-05-08T11:38:29;100636.69;;;20.41;77.02
61384;BME280;63511;49.346;8.798;2023-05-08T11:40:57;100645.34;;;20.19;78.47
61384;BME280;63511;49.346;8.798;2023-05-08T11:43:32;100637.53;;;20.16;77.19
61384;BME280;63511;49.346;8.798;2023-05-08T11:46:05;100636.56;;;20.38;78.07
61384;BME280;63511;49.346;8.798;2023-05-08T11:48:34;100644.69;;;20.26;78.40
61384;BME280;63511;49.346;8.798;2023-05-08T11:51:01;100647.59;;;20.10;76.74
61384;BME280;63511;49.346;8.798;2023-05-08T11:53:28;100640.22;;;20.21;78.27
61384;BME280;63511;49.346;8.798;2023-05-08T11:55:55;100638.09;;;20.08;80.95
61384;BME280;63511;49.346;8.798;2023-05-08T11:58:25;100636.41;;;20.08;78.33
61384;BME280;63511;49.346;8.798;2023-05-08T12:00:52;100639.41;;;20.46;76.56
61384;BME280;63511;49.346;8.798;2023-05-08T12:03:20;100624.81;;;20.45;75.75
61384;BME280;63511;49.346;8.798;2023-05-08T12:05:47;100643.81;;;20.78;75.92
61384;BME280;63511;49.346;8.798;2023-05-08T12:08:15;100640.06;;;20.40;76.18
61384;BME280;63511;49.346;8.798;2023-05-08T12:10:47;100642.66;;;20.42;78.93
61384;BME280;63511;49.346;8.798;2023-05-08T12:13:15;100654.59;;;19.90;79.05
61384;BME280;63511;49.346;8.798;2023-05-08T12:15:43;100644.53;;;19.97;79.83
61384;BME280;63511;49.346;8.798;2023-05-08T12:18:09;100647.03;;;20.19;79.08
61384;BME280;63511;49.346;8.798;2023-05-08T12:20:37;100644.19;;;20.11;80.65
61384;BME280;63511;49.346;8.798;2023-05-08T12:23:04;100652.03;;;19.90;81.38
61384;BME280;63511;49.346;8.798;2023-05-08T12:25:30;100643.78;;;19.99;80.03
61384;BME280;63511;49.346;8.798;2023-05-08T12:27:57;100652.03;;;20.16;81.37
61384;BME280;63511;49.346;8.798;2023-05-08T12:30:25;100642.78;;;20.19;80.80
61384;BME280;63511;49.346;8.798;2023-05-08T12:32:51;100652.34;;;20.00;80.53
61384;BME280;63511;49.346;8.798;2023-05-08T12:35:18;100652.50;;;20.04;81.13
61384;BME280;63511;49.346;8.798;2023-05-08T12:37:47;100656.13;;;19.85;80.76
61384;BME280;63511;49.346;8.798;2023-05-08T12:40:23;100648.69;;;19.93;82.00
61384;BME280;63511;49.346;8.798;2023-05-08T12:42:50;100637.66;;;20.45;80.89
61384;BME280;63511;49.346;8.798;2023-05-08T12:45:17;100645.00;;;20.34;79.00
61384;BME280;63511;49.346;8.798;2023-05-08T12:47:45;100644.38;;;20.41;76.92
61384;BME280;63511;49.346;8.798;2023-05-08T12:50:12;100637.22;;;20.07;79.66
61384;BME280;63511;49.346;8.798;2023-05-08T12:52:39;100640.22;;;20.45;78.48
61384;BME280;63511;49.346;8.798;2023-05-08T12:55:22;100643.13;;;20.05;79.05
61384;BME280;63511;49.346;8.798;2023-05-08T12:57:49;100636.13;;;20.26;79.66
61384;BME280;63511;49.346;8.798;2023-05-08T13:00:17;100637.66;;;20.21;79.01
61384;BME280;63511;49.346;8.798;2023-05-08T13:02:50;100633.75;;;20.57;79.44
61384;BME280;63511;49.346;8.798;2023-05-08T13:05:18;100639.59;;;20.52;77.21
61384;BME280;63511;49.346;8.798;2023-05-08T13:07:45;100638.66;;;20.24;79.17